Time;durP1;ratioP1;P1;durP2;ratioP2;P2;SDS_P1;SDS_P2;PMS_P1;PMS_P2;Temp;Humidity;BMP_temperature;BMP_pressure;BME280_temperature;BME280_humidity;BME280_pressure;Samples;Min_cycle;Max_cycle;Signal;HPM_P1;HPM_P2
2022/05/02 00:02:25;;;;;;;17.88;10.85;;;9.60;99.90;;;8.30;93.23;101784.44;4966655;28;20038;-78
2022/05/02 00:04:51;;;;;;;20.58;11.23;;;9.60;99.90;;;8.38;93.04;101786.00;4967116;28;20038;-75
2022/05/02 00:07:16;;;;;;;17.92;11.77;;;9.60;99.90;;;8.45;91.29;101783.31;4948650;28;20408;-78
2022/05/02 00:09:42;;;;;;;18.52;11.55;;;9.60;99.90;;;8.50;90.50;101782.28;4958057;28;22192;-77
2022/05/02 00:12:09;;;;;;;21.17;12.07;;;9.70;99.90;;;8.53;90.15;101782.25;4937996;28;20406;-76
2022/05/02 00:14:36;;;;;;;25.33;12.43;;;9.60;99.90;;;8.57;89.32;101775.13;4947063;28;20037;-76
2022/05/02 00:17:02;;;;;;;18.10;11.48;;;9.70;99.90;;;8.54;90.10;101775.22;4928389;28;20168;-76
2022/05/02 00:19:28;;;;;;;19.55;11.77;;;9.70;99.90;;;8.56;90.28;101771.66;4934466;28;20027;-76
2022/05/02 00:21:56;;;;;;;23.52;11.30;;;9.70;99.90;;;8.59;89.43;101768.97;4944135;28;20146;-78
2022/05/02 00:24:21;;;;;;;20.02;11.70;;;9.70;99.90;;;8.57;89.50;101772.50;4903379;28;20057;-78
2022/05/02 00:26:47;;;;;;;20.08;12.13;;;9.70;99.90;;;8.54;89.38;101769.97;4930925;28;20018;-78
2022/05/02 00:29:13;;;;;;;23.50;12.80;;;9.60;99.90;;;8.47;90.08;101773.63;4958091;28;20023;-78
2022/05/02 00:31:38;;;;;;;23.20;13.02;;;9.60;99.90;;;8.38;90.58;101772.00;4965691;28;20030;-75
2022/05/02 00:34:04;;;;;;;22.48;13.18;;;9.50;99.90;;;8.34;90.85;101771.22;4947689;28;20072;-77
2022/05/02 00:36:30;;;;;;;23.00;14.35;;;9.50;99.90;;;8.20;92.47;101760.97;4939216;28;20533;-78
2022/05/02 00:38:55;;;;;;;32.45;14.77;;;9.40;99.90;;;8.07;94.05;101761.28;4947095;28;20081;-78
2022/05/02 00:41:24;;;;;;;22.85;15.13;;;9.40;99.90;;;8.11;94.56;101763.81;4967855;28;20062;-78
2022/05/02 00:43:50;;;;;;;24.70;13.55;;;9.40;99.90;;;8.14;94.73;101758.50;4945254;28;20045;-78
2022/05/02 00:46:18;;;;;;;23.63;13.90;;;9.40;99.90;;;8.18;94.59;101761.91;4910981;28;20050;-78
2022/05/02 00:48:45;;;;;;;19.17;13.32;;;9.40;99.90;;;8.19;94.32;101761.03;4999176;28;20038;-78
2022/05/02 00:51:10;;;;;;;25.52;13.70;;;9.40;99.90;;;8.21;94.54;101757.50;4940322;28;20029;-78
2022/05/02 00:53:37;;;;;;;18.65;12.82;;;9.40;99.90;;;8.18;94.51;101761.91;4951220;28;20042;-78
2022/05/02 00:56:06;;;;;;;18.58;12.07;;;9.40;99.90;;;8.14;93.73;101758.50;4950433;28;20050;-78
2022/05/02 00:58:36;;;;;;;20.35;13.32;;;9.30;99.90;;;8.12;93.03;101762.03;4962549;28;20092;-75
2022/05/02 01:01:07;;;;;;;23.15;15.65;;;9.30;99.90;;;8.08;93.04;101761.25;4947683;28;20181;-75
2022/05/02 01:03:34;;;;;;;24.50;15.77;;;9.30;99.90;;;8.04;93.26;101750.84;4981618;28;20049;-78
2022/05/02 01:08:46;;;;;;;24.92;13.80;;;9.20;99.90;;;8.07;93.05;101758.66;4943904;28;20029;-78
2022/05/02 01:11:12;;;;;;;27.13;16.23;;;9.30;99.90;;;8.04;92.37;101749.09;4957622;28;20034;-76
2022/05/02 01:13:47;;;;;;;24.73;15.90;;;9.20;99.90;;;8.04;94.05;101750.84;4979691;28;20031;-78
2022/05/02 01:16:23;;;;;;;26.17;16.17;;;9.30;99.90;;;8.04;94.64;101754.34;4954382;28;20046;-78
2022/05/02 01:18:51;;;;;;;30.63;14.60;;;9.20;99.90;;;8.02;94.99;101750.88;4960600;28;20117;-76
2022/05/02 01:21:21;;;;;;;25.15;15.23;;;9.20;99.90;;;8.05;94.92;101753.44;4953639;28;20126;-77
2022/05/02 01:23:52;;;;;;;20.08;13.60;;;9.20;99.90;;;7.98;94.42;101751.81;4957954;28;20096;-76
2022/05/02 01:26:18;;;;;;;24.95;15.02;;;9.20;99.90;;;7.93;94.16;101749.28;4960860;28;20023;-78
2022/05/02 01:28:53;;;;;;;26.90;15.32;;;9.10;99.90;;;7.92;93.78;101742.31;4915883;28;20056;-78
2022/05/02 01:31:19;;;;;;;23.58;16.15;;;9.10;99.90;;;7.87;94.50;101743.31;4953436;28;20095;-77
2022/05/02 01:33:47;;;;;;;29.00;16.30;;;9.10;99.90;;;7.83;95.92;101745.13;4937327;28;20057;-77
2022/05/02 01:36:13;;;;;;;30.25;16.27;;;9.10;99.90;;;7.79;96.46;101743.44;4956395;28;20030;-77
2022/05/02 01:38:39;;;;;;;28.23;15.48;;;9.00;99.90;;;7.79;96.86;101741.69;4954629;28;20041;-77
2022/05/02 01:41:10;;;;;;;24.83;14.68;;;9.10;99.90;;;7.75;97.06;101742.66;4964887;28;20074;-77
2022/05/02 01:43:37;;;;;;;22.27;15.02;;;9.00;99.90;;;7.73;97.87;101740.94;4964605;28;20035;-77
2022/05/02 01:46:06;;;;;;;21.58;15.13;;;8.90;99.90;;;7.69;98.33;101744.50;4964922;28;20037;-77
2022/05/02 01:48:33;;;;;;;26.50;15.18;;;8.90;99.90;;;7.59;98.63;101744.66;4953085;28;20034;-77
2022/05/02 01:50:59;;;;;;;26.40;15.82;;;8.90;99.90;;;7.59;99.12;101749.91;4927501;28;20406;-77
2022/05/02 01:53:28;;;;;;;26.52;17.08;;;8.80;99.90;;;7.52;99.46;101745.69;4946696;28;20114;-77
2022/05/02 01:55:54;;;;;;;32.22;16.83;;;8.80;99.90;;;7.48;99.95;101745.75;4961316;28;20026;-77
2022/05/02 01:58:20;;;;;;;30.50;16.50;;;8.80;99.90;;;7.39;100.00;101744.16;4958885;28;20030;-77
2022/05/02 02:00:46;;;;;;;29.02;17.52;;;8.70;99.90;;;7.33;100.00;101736.41;4953536;28;20047;-77
2022/05/02 02:03:12;;;;;;;30.65;17.60;;;8.70;99.90;;;7.31;99.90;101738.19;4957839;28;20030;-77
2022/05/02 02:05:50;;;;;;;29.83;17.92;;;8.60;99.90;;;7.28;100.00;101739.09;4944197;28;20538;-77
2022/05/02 02:08:23;;;;;;;29.77;18.02;;;8.50;99.90;;;7.24;100.00;101737.44;4939947;28;20387;-77
2022/05/02 02:10:52;;;;;;;36.50;17.17;;;8.50;99.90;;;7.19;99.94;101736.63;4953853;28;20062;-77
2022/05/02 02:13:18;;;;;;;32.38;18.65;;;8.40;99.90;;;7.14;100.00;101736.69;4967867;28;20079;-77
2022/05/02 02:15:44;;;;;;;35.38;18.73;;;8.40;99.90;;;7.07;100.00;101728.97;4965445;28;20046;-77
2022/05/02 02:18:09;;;;;;;31.73;18.45;;;8.30;99.90;;;7.01;100.00;101729.94;4962550;28;20038;-77
2022/05/02 02:20:36;;;;;;;30.08;16.42;;;8.20;99.90;;;6.95;99.92;101727.41;4959237;28;20567;-79
2022/05/02 02:23:04;;;;;;;24.27;13.80;;;8.20;99.90;;;6.84;98.75;101738.03;4947579;28;20031;-77
2022/05/02 02:25:31;;;;;;;17.77;12.55;;;8.10;99.90;;;6.76;97.67;101738.16;4950317;28;20027;-77
2022/05/02 02:28:00;;;;;;;20.90;12.68;;;8.00;99.90;;;6.63;96.73;101734.00;4969946;28;20069;-77
2022/05/02 02:30:27;;;;;;;29.58;17.20;;;7.90;99.90;;;6.50;96.62;101724.56;4952766;28;20114;-77
2022/05/02 02:32:52;;;;;;;26.58;17.15;;;7.80;99.90;;;6.38;97.98;101723.00;4968643;28;20031;-76
2022/05/02 02:35:20;;;;;;;28.60;18.30;;;7.70;99.90;;;6.30;99.31;101723.09;4962157;28;20078;-77
2022/05/02 02:37:47;;;;;;;38.58;19.73;;;7.70;99.90;;;6.29;100.00;101721.38;4949443;28;20045;-76
2022/05/02 02:40:14;;;;;;;40.60;12.73;;;7.60;99.90;;;6.16;100.00;101725.03;4950748;28;20035;-76
2022/05/02 02:42:39;;;;;;;15.95;12.00;;;7.50;99.90;;;6.07;99.81;101727.72;4955349;28;20034;-76
2022/05/02 02:45:06;;;;;;;15.05;9.18;;;7.40;99.90;;;5.92;98.42;101721.78;4952917;28;20023;-77
2022/05/02 02:47:32;;;;;;;18.63;11.73;;;7.30;99.90;;;5.84;97.14;101727.97;4941737;28;20031;-77
2022/05/02 02:49:58;;;;;;;20.30;13.63;;;7.20;99.90;;;5.76;96.89;101733.28;4953698;28;20106;-77
2022/05/02 02:52:24;;;;;;;24.85;15.57;;;7.10;99.90;;;5.66;96.40;101734.25;4944119;28;20030;-77
2022/05/02 02:54:50;;;;;;;20.90;14.27;;;7.00;99.90;;;5.59;96.44;101735.19;4965124;28;20053;-77
2022/05/02 02:57:15;;;;;;;20.38;11.80;;;6.90;99.90;;;5.48;96.29;101730.06;4948324;28;20049;-77
2022/05/02 02:59:42;;;;;;;20.15;13.65;;;6.80;99.90;;;5.37;96.16;101717.13;4975875;28;20062;-78
2022/05/02 03:02:08;;;;;;;26.75;15.05;;;6.70;99.90;;;5.27;95.81;101723.28;4963705;28;20030;-76
2022/05/02 03:07:24;;;;;;;30.45;17.63;;;6.60;99.90;;;5.10;96.82;101721.72;4962954;28;20026;-77
2022/05/02 03:09:50;;;;;;;32.20;17.88;;;6.50;99.90;;;5.03;97.56;101717.41;4943639;28;20542;-76
2022/05/02 03:12:16;;;;;;;31.55;18.42;;;6.40;99.90;;;4.97;98.51;101716.56;4944206;28;20031;-77
2022/05/02 03:14:42;;;;;;;31.20;18.90;;;6.40;99.90;;;4.94;98.75;101710.50;4966721;28;20380;-77
2022/05/02 03:17:08;;;;;;;34.70;18.63;;;6.30;99.90;;;4.93;99.17;101723.59;4948475;28;20140;-76
2022/05/02 03:19:34;;;;;;;36.92;18.77;;;6.30;99.90;;;4.89;99.30;101716.66;4960988;28;20902;-77
2022/05/02 03:21:59;;;;;;;28.95;17.38;;;6.20;99.90;;;4.85;99.58;101720.16;4946285;28;20045;-76
2022/05/02 03:24:25;;;;;;;37.40;19.92;;;6.20;99.90;;;4.84;99.71;101718.44;4968782;28;20015;-76
2022/05/02 03:26:51;;;;;;;32.88;18.50;;;6.20;99.90;;;4.82;99.45;101720.19;4945662;28;20015;-76
2022/05/02 03:29:16;;;;;;;38.75;20.33;;;6.10;99.90;;;4.76;99.47;101715.00;4945377;28;20029;-76
2022/05/02 03:31:42;;;;;;;32.78;18.80;;;6.10;99.90;;;4.76;99.78;101725.44;4981687;28;20047;-77
2022/05/02 03:34:08;;;;;;;31.83;17.50;;;6.10;99.90;;;4.72;99.82;101717.63;4955664;28;20487;-76
2022/05/02 03:36:34;;;;;;;33.83;19.00;;;6.10;99.90;;;4.71;99.50;101713.28;4962567;28;20019;-75
2022/05/02 03:39:01;;;;;;;32.90;17.73;;;6.10;99.90;;;4.68;99.45;101710.69;4970506;28;20968;-77
2022/05/02 03:41:26;;;;;;;41.85;24.02;;;6.00;99.90;;;4.68;99.18;101717.66;4991457;28;20109;-76
2022/05/02 03:43:52;;;;;;;40.00;20.95;;;6.00;99.90;;;4.70;98.88;101721.97;4964971;28;20542;-76
2022/05/02 03:46:18;;;;;;;50.03;24.58;;;6.00;99.90;;;4.72;98.91;101719.38;4990812;28;20035;-76
2022/05/02 03:48:46;;;;;;;44.42;23.27;;;6.00;99.90;;;4.76;99.16;101709.78;4962709;28;20403;-77
2022/05/02 03:51:12;;;;;;;52.00;25.15;;;6.10;99.90;;;4.80;99.56;101708.91;4953919;28;20092;-76
2022/05/02 03:53:37;;;;;;;31.30;15.85;;;6.10;99.90;;;4.85;99.31;101713.19;4939381;28;20023;-76
2022/05/02 03:56:04;;;;;;;43.38;24.77;;;6.10;99.90;;;4.89;99.01;101708.81;4962087;28;20027;-77
2022/05/02 03:58:30;;;;;;;38.65;23.02;;;6.10;99.90;;;4.94;99.56;101709.63;4940430;28;20446;-77
2022/05/02 04:00:56;;;;;;;46.35;25.73;;;6.20;99.90;;;5.03;99.92;101712.19;4919059;28;20180;-77
2022/05/02 04:03:22;;;;;;;59.95;29.95;;;6.20;99.90;;;5.10;99.76;101710.41;4955135;28;20034;-77
2022/05/02 04:05:47;;;;;;;46.10;27.60;;;6.30;99.90;;;5.20;99.90;101708.56;4969432;28;20030;-77
2022/05/02 04:08:13;;;;;;;45.92;24.55;;;6.40;99.90;;;5.34;99.57;101709.31;4964492;28;20490;-76
2022/05/02 04:10:39;;;;;;;47.63;26.02;;;6.70;99.90;;;5.64;99.07;101713.38;4953178;28;20065;-76
2022/05/02 04:13:05;;;;;;;53.03;27.85;;;7.00;99.90;;;6.19;98.06;101708.44;4960786;28;22972;-77
2022/05/02 04:15:30;;;;;;;57.42;26.52;;;7.60;99.90;;;6.94;96.40;101716.06;4969894;28;20110;-76
2022/05/02 04:17:58;;;;;;;45.63;23.92;;;8.30;99.90;;;7.84;93.26;101710.16;4969939;28;20415;-76
2022/05/02 04:20:24;;;;;;;39.38;23.08;;;9.20;99.90;;;8.96;87.95;101714.72;4970753;28;20038;-76
2022/05/02 04:22:50;;;;;;;31.13;20.15;;;10.00;99.90;;;10.08;81.97;101717.03;4954402;28;20049;-77
2022/05/02 04:25:16;;;;;;;28.25;18.23;;;10.80;99.90;;;10.86;75.82;101722.63;4976132;28;20031;-77
2022/05/02 04:27:41;;;;;;;25.40;15.43;;;11.00;99.90;;;10.79;73.15;101720.22;4955937;28;20046;-77
2022/05/02 04:30:08;;;;;;;18.08;12.75;;;11.50;99.90;;;11.57;68.61;101724.66;4954136;28;20034;-76
2022/05/02 04:32:34;;;;;;;15.95;12.10;;;12.00;99.90;;;12.24;65.57;101710.81;4950279;28;20513;-77
2022/05/02 04:34:59;;;;;;;16.02;11.88;;;12.60;99.90;;;13.29;61.98;101726.91;4938719;28;20034;-76
2022/05/02 04:37:25;;;;;;;26.30;12.35;;;13.50;99.90;;;14.55;58.32;101720.47;4952466;28;20028;-77
2022/05/02 04:39:52;;;;;;;28.05;12.02;;;14.30;99.90;;;15.60;55.41;101726.78;4933598;28;20054;-77
2022/05/02 04:42:18;;;;;;;19.17;10.70;;;14.40;99.90;;;16.62;52.96;101730.16;4991015;28;20423;-77
2022/05/02 04:44:44;;;;;;;15.75;11.50;;;15.90;99.90;;;17.63;50.79;101736.78;4962486;28;20482;-77
2022/05/02 04:47:09;;;;;;;18.52;10.02;;;16.60;99.90;;;18.20;48.58;101744.81;4960542;28;20037;-77
2022/05/02 04:49:35;;;;;;;19.10;13.60;;;17.10;99.90;;;18.17;48.42;101750.34;4962697;28;20031;-77
2022/05/02 04:52:01;;;;;;;20.63;14.50;;;16.70;99.90;;;16.45;51.63;101754.19;4962249;28;20034;-76
2022/05/02 04:54:26;;;;;;;28.70;17.98;;;16.00;99.90;;;15.02;55.07;101764.19;4967894;28;20717;-77
2022/05/02 04:56:52;;;;;;;32.58;19.30;;;15.10;99.90;;;13.95;58.46;101776.16;4962193;28;20073;-76
2022/05/02 04:59:18;;;;;;;31.92;21.02;;;14.40;99.90;;;13.68;60.42;101773.78;4954205;28;20038;-76
2022/05/02 05:01:44;;;;;;;33.72;20.45;;;14.30;99.90;;;15.05;58.71;101774.66;4951166;28;20627;-77
2022/05/02 05:04:09;;;;;;;30.95;19.30;;;14.90;99.90;;;16.93;53.49;101771.91;4936407;28;20049;-76
2022/05/02 05:06:36;;;;;;;27.40;18.17;;;15.80;99.90;;;18.69;49.39;101777.34;4960591;28;20031;-77
2022/05/02 05:09:03;;;;;;;24.55;18.20;;;16.90;99.90;;;20.25;45.85;101777.50;4948294;28;20042;-77
2022/05/02 05:12:06;;;;;;;28.48;17.58;;;18.00;99.90;;;21.76;42.93;101784.34;4953592;28;20085;-77
2022/05/02 05:18:17;;;;;;;30.88;15.77;;;20.70;99.90;;;25.35;37.36;101798.84;4965693;28;20105;-78
2022/05/02 05:20:55;;;;;;;24.05;15.13;;;21.90;98.10;;;26.36;35.58;101812.72;4981706;28;20033;-76
2022/05/02 05:24:32;;;;;;;24.25;13.45;;;22.80;97.00;;;27.38;34.47;101823.34;4974050;28;20062;-77
2022/05/02 05:27:30;;;;;;;20.52;12.10;;;24.00;95.00;;;28.16;32.74;101828.00;4957298;28;20030;-77
2022/05/02 05:30:07;;;;;;;19.17;11.40;;;24.60;93.70;;;28.62;32.11;101838.63;4959377;28;20639;-77
2022/05/02 05:32:51;;;;;;;15.50;10.70;;;24.60;92.40;;;29.19;31.36;101837.94;4940523;28;20146;-78
2022/05/02 05:35:59;;;;;;;17.67;11.43;;;25.60;91.80;;;29.75;30.25;101846.31;4954960;28;20434;-78
2022/05/02 05:39:01;;;;;;;15.07;10.50;;;26.20;91.10;;;30.29;29.78;101843.03;4955805;28;20038;-78
2022/05/02 05:41:48;;;;;;;14.68;10.13;;;26.60;90.10;;;30.70;29.08;101862.72;4940332;28;20518;-78
2022/05/02 05:44:53;;;;;;;16.38;11.27;;;27.00;89.70;;;31.31;28.66;101864.78;4970493;28;20110;-77
2022/05/02 05:48:05;;;;;;;16.30;11.02;;;27.50;88.20;;;31.68;27.98;101869.44;4955701;28;20030;-77
2022/05/02 05:50:33;;;;;;;16.52;10.57;;;28.00;86.90;;;32.26;27.24;101886.94;4968307;28;20133;-77
2022/05/02 05:53:38;;;;;;;15.13;10.55;;;28.40;85.30;;;33.11;26.66;101890.22;4963473;28;20030;-78
2022/05/02 05:56:45;;;;;;;14.43;11.13;;;29.10;83.60;;;33.96;25.10;101898.63;4965718;28;20125;-78
2022/05/02 05:59:35;;;;;;;18.88;12.00;;;29.70;82.30;;;34.39;24.79;101902.09;4966032;28;20402;-77
2022/05/02 06:02:30;;;;;;;18.60;12.68;;;30.30;79.00;;;34.63;23.90;101906.25;4945416;28;20030;-78
2022/05/02 06:04:59;;;;;;;21.08;12.07;;;30.70;79.60;;;35.09;24.58;101918.41;4933411;28;20069;-78
2022/05/02 06:07:28;;;;;;;20.88;13.52;;;31.10;78.60;;;35.38;23.87;101921.88;4955566;28;20035;-78
2022/05/02 06:10:00;;;;;;;19.23;13.05;;;31.50;76.60;;;35.59;23.82;101927.19;4959432;28;20117;-78
2022/05/02 06:12:29;;;;;;;16.35;12.88;;;31.70;76.40;;;35.74;23.38;101925.13;4951511;28;20451;-78
2022/05/02 06:20:34;;;;;;;21.75;12.65;;;32.30;70.50;;;35.54;22.76;101943.41;4973871;28;20418;-78
2022/05/02 06:23:02;;;;;;;16.80;12.95;;;32.40;71.00;;;35.45;22.90;101944.66;4962477;28;20106;-78
2022/05/02 06:25:35;;;;;;;18.42;12.65;;;32.50;70.20;;;35.13;22.96;101945.19;4967546;28;20022;-78
2022/05/02 06:28:03;;;;;;;21.20;12.00;;;32.40;69.40;;;34.90;23.44;101951.00;4951423;28;20092;-78
2022/05/02 06:30:30;;;;;;;19.25;12.82;;;32.20;68.40;;;34.29;23.57;101942.59;4951180;28;20022;-78
2022/05/02 06:33:00;;;;;;;19.58;13.07;;;31.90;67.90;;;33.49;24.21;101952.78;4972096;28;20026;-78
2022/05/02 06:35:36;;;;;;;15.82;10.93;;;31.80;68.90;;;33.71;23.45;101950.91;4999716;28;20042;-78
2022/05/02 06:38:50;;;;;;;20.90;11.82;;;31.60;66.70;;;32.76;24.02;101963.59;4952176;28;20042;-77
2022/05/02 06:41:46;;;;;;;18.83;12.27;;;31.20;68.00;;;32.72;24.51;101947.81;4942833;28;20039;-77
2022/05/02 06:44:56;;;;;;;19.37;11.67;;;31.20;69.20;;;33.34;24.32;101954.72;4968306;28;20093;-78
2022/05/02 06:48:00;;;;;;;19.40;11.55;;;31.60;68.40;;;33.77;23.96;101952.03;4928679;28;20117;-77
2022/05/02 06:50:32;;;;;;;18.70;11.15;;;32.00;66.70;;;33.76;23.98;101958.53;4971898;28;20026;-79
2022/05/02 06:53:26;;;;;;;18.67;11.38;;;32.20;67.50;;;34.30;23.14;101961.56;4987207;28;20228;-78
2022/05/02 06:56:41;;;;;;;17.67;11.90;;;32.60;63.80;;;34.52;23.04;101965.06;4956574;28;20462;-78
2022/05/02 06:59:38;;;;;;;16.95;10.90;;;33.00;65.00;;;34.77;22.89;101967.31;4949864;28;20411;-78
2022/05/02 07:02:24;;;;;;;;;;;33.30;65.20;;;35.31;22.75;101962.94;4973256;28;20046;-77
2022/05/02 07:04:57;;;;;;;19.38;10.65;;;33.80;63.60;;;35.29;22.46;101965.03;4958124;28;19910;-78
2022/05/02 07:07:55;;;;;;;16.13;10.85;;;34.10;64.20;;;35.57;22.34;101967.63;4976441;28;20037;-78
2022/05/02 07:10:29;;;;;;;19.13;9.80;;;34.30;62.90;;;35.69;22.09;101976.97;4948951;28;20769;-78
2022/05/02 07:13:31;;;;;;;11.25;7.85;;;34.60;61.00;;;35.65;21.76;101972.97;4969405;28;20027;-78
2022/05/02 07:16:24;;;;;;;12.68;9.60;;;34.70;60.30;;;35.47;21.34;101978.19;4951412;28;20046;-77
2022/05/02 07:19:19;;;;;;;14.82;8.57;;;34.90;60.30;;;35.51;21.69;101968.50;4989417;28;20045;-78
2022/05/02 07:21:55;;;;;;;13.32;8.98;;;34.90;59.70;;;35.33;22.02;101972.63;4961767;28;20043;-79
2022/05/02 07:25:13;;;;;;;14.77;8.98;;;34.90;59.60;;;35.18;21.40;101965.66;4961566;28;20039;-78
2022/05/02 07:28:29;;;;;;;20.98;9.75;;;34.80;58.80;;;34.42;22.45;101961.84;4949615;28;20151;-78
2022/05/02 07:30:58;;;;;;;17.50;9.52;;;34.50;59.80;;;34.56;22.79;101957.31;4945989;28;20038;-78
2022/05/02 07:33:34;;;;;;;13.10;9.52;;;34.50;59.80;;;34.75;22.74;101946.69;4977189;28;20031;-76
2022/05/02 07:36:03;;;;;;;15.40;9.07;;;34.50;58.70;;;34.59;22.64;101948.69;4993346;28;20506;-77
2022/05/02 07:38:36;;;;;;;12.45;8.77;;;34.40;58.80;;;34.29;22.60;101943.44;4939954;28;20100;-76
2022/05/02 07:41:22;;;;;;;13.55;8.50;;;34.40;58.90;;;34.29;22.83;101934.41;4936836;28;20047;-76
2022/05/02 07:44:10;;;;;;;11.60;7.60;;;34.30;58.40;;;34.20;21.97;101932.88;4997806;28;20041;-78
2022/05/02 07:46:41;;;;;;;12.30;7.50;;;34.20;57.80;;;33.88;22.65;101935.94;4985385;28;20061;-79
2022/05/02 07:49:09;;;;;;;13.25;7.53;;;34.10;58.20;;;33.79;22.21;101937.13;4959041;28;20202;-78
2022/05/02 07:51:52;;;;;;;11.60;6.97;;;34.00;58.40;;;33.78;21.92;101930.00;4951039;28;20034;-78
2022/05/02 07:54:25;;;;;;;11.68;7.15;;;34.00;58.30;;;33.83;22.34;101929.41;4954879;28;20105;-78
2022/05/02 07:56:55;;;;;;;16.35;8.00;;;34.00;57.60;;;33.81;22.62;101931.47;4961616;28;20041;-78
2022/05/02 07:59:26;;;;;;;14.48;7.05;;;33.80;57.50;;;33.57;22.31;101928.09;4960085;28;20089;-77
2022/05/02 08:01:53;;;;;;;9.50;6.38;;;33.30;55.40;;;32.52;23.08;101939.31;4945513;28;20050;-78
2022/05/02 08:04:19;;;;;;;11.88;6.47;;;33.10;57.70;;;32.67;23.04;101926.56;4952871;28;20058;-78
2022/05/02 08:07:05;;;;;;;12.02;6.63;;;32.70;57.30;;;31.95;23.57;101922.50;4951743;28;20070;-78
2022/05/02 08:10:12;;;;;;;12.77;6.35;;;32.20;57.70;;;31.67;23.96;101920.34;4930290;28;20026;-78
2022/05/02 08:12:40;;;;;;;10.23;6.60;;;31.80;58.00;;;31.29;24.56;101908.50;4937898;28;20038;-78
2022/05/02 08:15:19;;;;;;;11.63;7.30;;;31.60;57.30;;;31.20;23.83;101906.84;4956200;28;20034;-78
2022/05/02 08:18:35;;;;;;;12.07;7.35;;;31.50;58.50;;;31.20;23.81;101901.41;4957459;28;20045;-78
2022/05/02 08:21:09;;;;;;;13.73;6.13;;;31.30;58.70;;;31.19;24.10;101895.13;4970732;28;20644;-78
2022/05/02 08:27:33;;;;;;;12.30;7.47;;;30.50;57.50;;;28.59;25.46;101891.25;4970656;28;21074;-78
2022/05/02 08:30:04;;;;;;;9.13;5.78;;;28.80;58.50;;;26.82;27.95;101886.59;4975784;28;20038;-78
2022/05/02 08:32:57;;;;;;;11.32;5.18;;;27.70;60.40;;;25.76;28.83;101875.03;4970555;28;20049;-78
2022/05/02 08:35:59;;;;;;;8.57;4.82;;;26.10;59.50;;;23.84;30.45;101865.97;4969655;28;20035;-78
2022/05/02 08:39:02;;;;;;;10.10;5.18;;;24.40;62.70;;;22.25;32.28;101852.97;4960233;28;20050;-77
2022/05/02 08:41:34;;;;;;;14.68;5.40;;;23.30;65.40;;;22.54;32.76;101842.59;4979107;28;20131;-78
2022/05/02 08:44:37;;;;;;;12.38;6.57;;;22.70;68.40;;;21.61;34.56;101837.28;4979002;28;20379;-77
2022/05/02 08:47:17;;;;;;;11.93;5.25;;;22.40;67.70;;;21.36;33.98;101828.41;4988736;28;20065;-78
2022/05/02 08:50:13;;;;;;;12.40;5.68;;;22.20;69.70;;;21.73;35.05;101825.66;4966881;28;20035;-77
2022/05/02 08:53:19;;;;;;;15.00;6.03;;;22.00;72.10;;;21.16;34.49;101810.28;4966096;28;20066;-77
2022/05/02 08:56:29;;;;;;;10.73;5.60;;;21.50;71.50;;;20.69;36.90;101810.97;4956824;28;20026;-78
2022/05/02 08:59:32;;;;;;;10.48;4.78;;;21.30;72.00;;;20.53;36.72;101810.31;4972568;28;20039;-78
2022/05/02 09:02:53;;;;;;;11.68;5.40;;;21.40;73.30;;;21.10;37.39;101792.81;4964181;28;20050;-77
2022/05/02 09:06:18;;;;;;;11.82;5.35;;;21.70;74.70;;;21.60;35.60;101793.56;4971201;28;20026;-77
2022/05/02 09:09:21;;;;;;;7.68;3.70;;;22.10;74.20;;;21.96;34.45;101788.16;4968066;28;20035;-77
2022/05/02 09:12:26;;;;;;;8.57;4.10;;;22.40;73.20;;;22.10;35.07;101780.72;4973047;28;20035;-78
2022/05/02 09:15:11;;;;;;;8.00;3.50;;;22.30;68.40;;;21.51;34.46;101772.81;4969448;28;20117;-77
2022/05/02 09:18:32;;;;;;;6.53;3.72;;;22.10;69.40;;;21.14;35.54;101766.69;4962754;28;20038;-77
2022/05/02 09:21:05;;;;;;;9.18;3.83;;;21.40;71.40;;;20.39;37.63;101759.63;4955746;28;20038;-77
2022/05/02 09:23:57;;;;;;;4.15;2.28;;;20.90;72.10;;;19.39;36.27;101751.34;4957732;28;20136;-77
2022/05/02 09:27:03;;;;;;;3.45;1.73;;;20.00;69.20;;;18.42;36.73;101755.00;4994222;28;20113;-78
2022/05/02 09:30:05;;;;;;;4.90;2.38;;;19.50;71.60;;;18.40;37.89;101742.69;4977253;28;20039;-77
2022/05/02 09:33:01;;;;;;;4.18;2.38;;;19.40;74.70;;;18.66;38.23;101735.72;4964333;28;20043;-77
2022/05/02 09:35:53;;;;;;;6.80;2.08;;;19.40;73.90;;;18.38;37.87;101720.59;4964197;28;20026;-77
2022/05/02 09:38:36;;;;;;;7.35;2.30;;;18.90;71.30;;;17.73;38.19;101718.41;4933541;28;20550;-77
2022/05/02 09:41:45;;;;;;;5.90;2.40;;;18.60;76.60;;;17.73;41.24;101716.63;4925282;28;22844;-77
2022/05/02 09:50:49;;;;;;;3.60;2.00;;;19.40;70.20;;;18.80;35.40;101700.16;4955228;28;20081;-77
2022/05/02 09:54:05;;;;;;;4.93;1.58;;;19.50;70.30;;;19.03;34.72;101707.50;4968727;28;20039;-77
2022/05/02 09:56:46;;;;;;;7.32;1.42;;;19.60;74.00;;;18.83;36.27;101690.16;4964608;28;20490;-77
2022/05/02 09:59:28;;;;;;;2.80;1.30;;;19.40;72.10;;;18.75;37.18;101689.75;4953375;28;20050;-77
2022/05/02 10:02:23;;;;;;;5.15;2.00;;;19.40;73.60;;;18.39;37.44;101682.34;4969603;28;20038;-77
2022/05/02 10:05:08;;;;;;;5.85;1.20;;;19.30;70.40;;;18.50;35.21;101679.81;4968617;28;20545;-77
2022/05/02 10:07:52;;;;;;;4.75;1.75;;;19.20;68.80;;;18.32;35.59;101684.53;4951005;28;20085;-77
2022/05/02 10:10:30;;;;;;;5.13;1.80;;;19.10;72.50;;;17.89;36.86;101676.59;4954277;28;20038;-78
2022/05/02 10:13:05;;;;;;;4.00;1.10;;;18.90;71.40;;;17.99;37.66;101674.19;4960085;28;20030;-77
2022/05/02 10:16:15;;;;;;;2.83;1.00;;;19.00;72.60;;;18.10;37.70;101660.19;4957756;28;20073;-77
2022/05/02 10:19:29;;;;;;;4.07;1.20;;;18.80;70.60;;;17.77;35.96;101650.69;4968851;28;20539;-77
2022/05/02 10:22:31;;;;;;;6.78;1.63;;;18.60;72.70;;;17.70;36.73;101652.03;4953848;28;20042;-77
2022/05/02 10:25:29;;;;;;;3.53;1.42;;;18.30;71.80;;;16.89;37.79;101636.47;4952777;28;20406;-78
2022/05/02 10:28:32;;;;;;;1.92;0.98;;;18.00;72.50;;;16.94;38.31;101634.41;4951962;28;20118;-77
2022/05/02 10:31:13;;;;;;;5.28;1.60;;;18.00;72.40;;;17.27;38.58;101636.84;4954361;28;20038;-77
2022/05/02 10:33:51;;;;;;;4.82;1.75;;;18.30;75.20;;;17.91;37.80;101625.88;4978410;28;20407;-77
2022/05/02 10:36:27;;;;;;;3.08;1.10;;;18.80;76.30;;;18.42;37.76;101626.13;4976781;28;20101;-77
2022/05/02 10:39:03;;;;;;;1.90;1.13;;;18.80;71.10;;;18.04;36.56;101630.34;4962054;28;20033;-77
2022/05/02 10:41:58;;;;;;;4.32;1.00;;;18.70;70.70;;;17.64;36.06;101623.94;4962312;28;20046;-77
2022/05/02 10:44:43;;;;;;;2.08;0.95;;;18.20;70.70;;;16.86;37.22;101623.38;4953241;28;20031;-77
2022/05/02 10:47:11;;;;;;;3.65;1.08;;;18.00;72.10;;;17.08;38.19;101612.31;4962414;28;20039;-78
2022/05/02 10:49:59;;;;;;;7.65;1.10;;;18.10;73.50;;;17.59;37.54;101607.41;4952454;28;20058;-77
2022/05/02 10:53:01;;;;;;;4.28;1.00;;;18.50;72.30;;;18.06;36.26;101614.25;4941989;28;20672;-77
2022/05/02 10:55:33;;;;;;;1.90;0.88;;;18.80;72.90;;;18.40;36.65;101606.72;4959573;28;20047;-77
2022/05/02 10:58:08;;;;;;;2.45;1.00;;;19.00;72.60;;;18.34;36.54;101607.16;4975971;28;20190;-76
2022/05/02 11:00:56;;;;;;;2.30;1.10;;;19.00;69.30;;;18.36;34.57;101611.41;4962376;28;20049;-77
2022/05/02 11:03:52;;;;;;;2.58;0.95;;;18.80;69.50;;;17.73;35.67;101596.75;4943978;28;20027;-77
2022/05/02 11:06:56;;;;;;;1.02;0.65;;;18.80;71.20;;;18.04;37.89;101597.50;4965945;28;20042;-77
2022/05/02 11:09:52;;;;;;;2.08;0.68;;;19.00;66.70;;;18.28;34.54;101595.06;4968192;28;20089;-77
2022/05/02 11:12:27;;;;;;;2.42;0.90;;;19.20;70.50;;;18.72;34.72;101598.41;4967037;28;20034;-78
2022/05/02 11:15:05;;;;;;;2.17;0.77;;;19.50;68.50;;;19.18;33.34;101600.63;4951629;28;20023;-78
2022/05/02 11:18:08;;;;;;;1.52;0.70;;;19.80;67.40;;;19.44;33.19;101594.34;4981982;28;20490;-77